Terminal Aerodrome Forecast
Issued by NWS

Home | Current Version | Previous Version | Text Only | Print | Product List | Glossary On
Versions: 1 2 3 4 5 6 7 8 9 10 11 12 13 14 15
955
FTUS45 KTFX 051725
TAFBZN
TAF
KBZN 051725Z 0518/0618 29007KT P6SM VCSH SCT030 OVC050
      TEMPO 0518/0522 3SM -SHSN BR SCT015 BKN025
     FM052200 34008KT P6SM VCSH BKN035
     FM060200 34006KT P6SM OVC050
     FM061400 VRB06KT P6SM SCT050=

USA.gov is the U.S. government's official web portal to all federal, state and local government web resources and services.